sensor_id;sensor_type;location;lat;lon;timestamp;P1;durP1;ratioP1;P2;durP2;ratioP2
39728;SDS011;25402;42.004;23.088;2023-02-15T00:02:26;34.03;;;18.67;;
39728;SDS011;25402;42.004;23.088;2023-02-15T00:04:53;29.38;;;15.45;;
39728;SDS011;25402;42.004;23.088;2023-02-15T00:07:22;28.73;;;15.23;;
39728;SDS011;25402;42.004;23.088;2023-02-15T00:09:49;27.88;;;14.38;;
39728;SDS011;25402;42.004;23.088;2023-02-15T00:12:16;26.33;;;13.82;;
39728;SDS011;25402;42.004;23.088;2023-02-15T00:14:42;29.98;;;15.10;;
39728;SDS011;25402;42.004;23.088;2023-02-15T00:17:09;25.15;;;13.02;;
39728;SDS011;25402;42.004;23.088;2023-02-15T00:19:36;32.38;;;15.35;;
39728;SDS011;25402;42.004;23.088;2023-02-15T00:22:02;32.65;;;14.77;;
39728;SDS011;25402;42.004;23.088;2023-02-15T00:24:30;26.20;;;13.75;;
39728;SDS011;25402;42.004;23.088;2023-02-15T00:26:57;27.00;;;13.43;;
39728;SDS011;25402;42.004;23.088;2023-02-15T00:29:24;28.05;;;13.70;;
39728;SDS011;25402;42.004;23.088;2023-02-15T00:31:50;25.77;;;13.90;;
39728;SDS011;25402;42.004;23.088;2023-02-15T00:34:17;36.22;;;19.25;;
39728;SDS011;25402;42.004;23.088;2023-02-15T00:36:45;32.28;;;16.75;;
39728;SDS011;25402;42.004;23.088;2023-02-15T00:39:11;27.08;;;13.98;;
39728;SDS011;25402;42.004;23.088;2023-02-15T00:41:40;25.35;;;13.75;;
39728;SDS011;25402;42.004;23.088;2023-02-15T00:44:06;23.25;;;12.20;;
39728;SDS011;25402;42.004;23.088;2023-02-15T00:46:33;28.13;;;12.52;;
39728;SDS011;25402;42.004;23.088;2023-02-15T00:49:01;25.42;;;12.85;;
39728;SDS011;25402;42.004;23.088;2023-02-15T00:51:28;25.92;;;12.70;;
39728;SDS011;25402;42.004;23.088;2023-02-15T00:53:55;29.77;;;15.60;;
39728;SDS011;25402;42.004;23.088;2023-02-15T00:56:23;30.58;;;15.38;;
39728;SDS011;25402;42.004;23.088;2023-02-15T00:58:51;32.63;;;14.15;;
39728;SDS011;25402;42.004;23.088;2023-02-15T01:01:19;33.40;;;15.68;;
39728;SDS011;25402;42.004;23.088;2023-02-15T01:03:45;29.63;;;13.95;;
39728;SDS011;25402;42.004;23.088;2023-02-15T01:06:12;27.17;;;13.90;;
39728;SDS011;25402;42.004;23.088;2023-02-15T01:08:39;24.65;;;12.80;;
39728;SDS011;25402;42.004;23.088;2023-02-15T01:11:06;33.67;;;15.13;;
39728;SDS011;25402;42.004;23.088;2023-02-15T01:13:32;32.45;;;15.40;;
39728;SDS011;25402;42.004;23.088;2023-02-15T01:16:01;30.90;;;16.33;;
39728;SDS011;25402;42.004;23.088;2023-02-15T01:18:27;35.75;;;16.60;;
39728;SDS011;25402;42.004;23.088;2023-02-15T01:20:55;31.02;;;15.88;;
39728;SDS011;25402;42.004;23.088;2023-02-15T01:23:21;34.85;;;16.27;;
39728;SDS011;25402;42.004;23.088;2023-02-15T01:25:48;31.10;;;16.02;;
39728;SDS011;25402;42.004;23.088;2023-02-15T01:28:14;29.13;;;13.80;;
39728;SDS011;25402;42.004;23.088;2023-02-15T01:30:41;33.25;;;15.52;;
39728;SDS011;25402;42.004;23.088;2023-02-15T01:33:09;31.23;;;15.85;;
39728;SDS011;25402;42.004;23.088;2023-02-15T01:35:42;30.20;;;15.43;;
39728;SDS011;25402;42.004;23.088;2023-02-15T01:38:09;32.83;;;16.25;;
39728;SDS011;25402;42.004;23.088;2023-02-15T01:40:35;30.08;;;16.08;;
39728;SDS011;25402;42.004;23.088;2023-02-15T01:43:07;37.00;;;16.73;;
39728;SDS011;25402;42.004;23.088;2023-02-15T01:45:35;28.05;;;14.82;;
39728;SDS011;25402;42.004;23.088;2023-02-15T01:48:03;27.70;;;15.57;;
39728;SDS011;25402;42.004;23.088;2023-02-15T01:50:32;33.35;;;15.85;;
39728;SDS011;25402;42.004;23.088;2023-02-15T01:53:01;30.67;;;15.95;;
39728;SDS011;25402;42.004;23.088;2023-02-15T01:55:30;30.10;;;15.88;;
39728;SDS011;25402;42.004;23.088;2023-02-15T01:57:58;35.65;;;15.52;;
39728;SDS011;25402;42.004;23.088;2023-02-15T02:00:25;34.85;;;16.85;;
39728;SDS011;25402;42.004;23.088;2023-02-15T02:02:52;33.92;;;16.65;;
39728;SDS011;25402;42.004;23.088;2023-02-15T02:05:20;32.13;;;16.35;;
39728;SDS011;25402;42.004;23.088;2023-02-15T02:07:48;34.83;;;18.08;;
39728;SDS011;25402;42.004;23.088;2023-02-15T02:10:17;39.00;;;19.17;;
39728;SDS011;25402;42.004;23.088;2023-02-15T02:12:45;45.35;;;20.48;;
39728;SDS011;25402;42.004;23.088;2023-02-15T02:15:12;51.05;;;22.50;;
39728;SDS011;25402;42.004;23.088;2023-02-15T02:17:41;48.28;;;23.30;;
39728;SDS011;25402;42.004;23.088;2023-02-15T02:20:26;39.63;;;21.17;;
39728;SDS011;25402;42.004;23.088;2023-02-15T02:23:20;50.38;;;24.05;;
39728;SDS011;25402;42.004;23.088;2023-02-15T02:28:41;43.15;;;21.95;;
39728;SDS011;25402;42.004;23.088;2023-02-15T02:31:17;46.40;;;22.45;;
39728;SDS011;25402;42.004;23.088;2023-02-15T02:33:54;42.20;;;21.20;;
39728;SDS011;25402;42.004;23.088;2023-02-15T02:36:27;45.85;;;19.23;;
39728;SDS011;25402;42.004;23.088;2023-02-15T02:39:04;39.58;;;19.10;;
39728;SDS011;25402;42.004;23.088;2023-02-15T02:41:35;44.63;;;20.73;;
39728;SDS011;25402;42.004;23.088;2023-02-15T02:44:07;25.95;;;13.73;;
39728;SDS011;25402;42.004;23.088;2023-02-15T02:46:37;35.67;;;18.23;;
39728;SDS011;25402;42.004;23.088;2023-02-15T02:49:07;36.78;;;18.88;;
39728;SDS011;25402;42.004;23.088;2023-02-15T02:51:33;36.58;;;17.35;;
39728;SDS011;25402;42.004;23.088;2023-02-15T02:54:01;31.83;;;16.55;;
39728;SDS011;25402;42.004;23.088;2023-02-15T02:56:32;31.20;;;16.02;;
39728;SDS011;25402;42.004;23.088;2023-02-15T02:59:00;38.58;;;19.38;;
39728;SDS011;25402;42.004;23.088;2023-02-15T03:01:29;36.55;;;16.65;;
39728;SDS011;25402;42.004;23.088;2023-02-15T03:03:58;34.63;;;18.13;;
39728;SDS011;25402;42.004;23.088;2023-02-15T03:06:30;41.58;;;19.42;;
39728;SDS011;25402;42.004;23.088;2023-02-15T03:09:01;37.60;;;19.65;;
39728;SDS011;25402;42.004;23.088;2023-02-15T03:11:31;40.40;;;19.20;;
39728;SDS011;25402;42.004;23.088;2023-02-15T03:13:57;47.00;;;21.42;;
39728;SDS011;25402;42.004;23.088;2023-02-15T03:16:24;43.30;;;20.90;;
39728;SDS011;25402;42.004;23.088;2023-02-15T03:18:52;39.60;;;20.73;;
39728;SDS011;25402;42.004;23.088;2023-02-15T03:21:23;45.40;;;20.90;;
39728;SDS011;25402;42.004;23.088;2023-02-15T03:23:54;43.38;;;20.63;;
39728;SDS011;25402;42.004;23.088;2023-02-15T03:26:22;50.67;;;20.15;;
39728;SDS011;25402;42.004;23.088;2023-02-15T03:28:50;44.35;;;20.50;;
39728;SDS011;25402;42.004;23.088;2023-02-15T03:31:19;47.47;;;21.30;;
39728;SDS011;25402;42.004;23.088;2023-02-15T03:33:50;44.42;;;21.55;;
39728;SDS011;25402;42.004;23.088;2023-02-15T03:36:18;50.33;;;23.35;;
39728;SDS011;25402;42.004;23.088;2023-02-15T03:38:47;44.15;;;20.90;;
39728;SDS011;25402;42.004;23.088;2023-02-15T03:41:17;46.40;;;22.38;;
39728;SDS011;25402;42.004;23.088;2023-02-15T03:43:46;41.90;;;20.20;;
39728;SDS011;25402;42.004;23.088;2023-02-15T03:46:17;46.17;;;21.20;;
39728;SDS011;25402;42.004;23.088;2023-02-15T03:48:46;46.10;;;21.30;;
39728;SDS011;25402;42.004;23.088;2023-02-15T03:51:15;72.22;;;21.13;;
39728;SDS011;25402;42.004;23.088;2023-02-15T03:54:03;46.50;;;21.30;;
39728;SDS011;25402;42.004;23.088;2023-02-15T03:56:32;47.03;;;21.85;;
39728;SDS011;25402;42.004;23.088;2023-02-15T03:58:59;42.72;;;19.85;;
39728;SDS011;25402;42.004;23.088;2023-02-15T04:04:26;44.00;;;21.15;;
39728;SDS011;25402;42.004;23.088;2023-02-15T04:06:54;47.65;;;20.75;;
39728;SDS011;25402;42.004;23.088;2023-02-15T04:09:21;42.70;;;21.05;;
39728;SDS011;25402;42.004;23.088;2023-02-15T04:12:06;50.78;;;22.52;;
39728;SDS011;25402;42.004;23.088;2023-02-15T04:14:33;43.38;;;21.85;;
39728;SDS011;25402;42.004;23.088;2023-02-15T04:17:16;63.88;;;22.27;;
39728;SDS011;25402;42.004;23.088;2023-02-15T04:19:43;49.13;;;22.65;;
39728;SDS011;25402;42.004;23.088;2023-02-15T04:22:27;47.78;;;22.17;;
39728;SDS011;25402;42.004;23.088;2023-02-15T04:27:39;51.95;;;21.77;;
39728;SDS011;25402;42.004;23.088;2023-02-15T04:30:06;45.65;;;22.33;;
39728;SDS011;25402;42.004;23.088;2023-02-15T04:32:33;49.45;;;21.67;;
39728;SDS011;25402;42.004;23.088;2023-02-15T04:34:59;44.53;;;22.10;;
39728;SDS011;25402;42.004;23.088;2023-02-15T04:37:26;46.58;;;22.98;;
39728;SDS011;25402;42.004;23.088;2023-02-15T04:39:53;52.75;;;22.05;;
39728;SDS011;25402;42.004;23.088;2023-02-15T04:42:19;52.13;;;20.50;;
39728;SDS011;25402;42.004;23.088;2023-02-15T04:44:48;51.33;;;21.45;;
39728;SDS011;25402;42.004;23.088;2023-02-15T04:47:15;53.15;;;23.55;;
39728;SDS011;25402;42.004;23.088;2023-02-15T04:49:41;54.45;;;23.77;;
39728;SDS011;25402;42.004;23.088;2023-02-15T04:52:08;45.17;;;23.33;;
39728;SDS011;25402;42.004;23.088;2023-02-15T04:54:34;59.72;;;28.35;;
39728;SDS011;25402;42.004;23.088;2023-02-15T04:57:01;43.25;;;22.52;;
39728;SDS011;25402;42.004;23.088;2023-02-15T04:59:27;49.15;;;22.38;;
39728;SDS011;25402;42.004;23.088;2023-02-15T05:01:55;49.67;;;22.85;;
39728;SDS011;25402;42.004;23.088;2023-02-15T05:04:22;43.90;;;22.63;;
39728;SDS011;25402;42.004;23.088;2023-02-15T05:06:48;43.33;;;22.25;;
39728;SDS011;25402;42.004;23.088;2023-02-15T05:09:15;44.47;;;21.30;;
39728;SDS011;25402;42.004;23.088;2023-02-15T05:11:42;46.80;;;22.55;;
39728;SDS011;25402;42.004;23.088;2023-02-15T05:14:08;63.58;;;29.27;;
39728;SDS011;25402;42.004;23.088;2023-02-15T05:16:35;100.13;;;42.17;;
39728;SDS011;25402;42.004;23.088;2023-02-15T05:19:03;78.93;;;35.05;;
39728;SDS011;25402;42.004;23.088;2023-02-15T05:21:30;59.20;;;24.10;;
39728;SDS011;25402;42.004;23.088;2023-02-15T05:23:57;53.85;;;26.15;;
39728;SDS011;25402;42.004;23.088;2023-02-15T05:26:24;49.92;;;24.00;;
39728;SDS011;25402;42.004;23.088;2023-02-15T05:29:18;49.45;;;25.30;;
39728;SDS011;25402;42.004;23.088;2023-02-15T05:31:47;62.53;;;31.80;;
39728;SDS011;25402;42.004;23.088;2023-02-15T05:34:15;54.55;;;26.23;;
39728;SDS011;25402;42.004;23.088;2023-02-15T05:39:38;54.50;;;27.67;;
39728;SDS011;25402;42.004;23.088;2023-02-15T05:42:05;51.85;;;26.88;;
39728;SDS011;25402;42.004;23.088;2023-02-15T05:44:32;58.15;;;29.70;;
39728;SDS011;25402;42.004;23.088;2023-02-15T05:46:58;92.68;;;41.38;;
39728;SDS011;25402;42.004;23.088;2023-02-15T05:49:29;83.18;;;37.40;;
39728;SDS011;25402;42.004;23.088;2023-02-15T05:51:56;50.60;;;24.60;;
39728;SDS011;25402;42.004;23.088;2023-02-15T05:54:23;89.15;;;38.78;;
39728;SDS011;25402;42.004;23.088;2023-02-15T05:56:52;59.28;;;29.40;;
39728;SDS011;25402;42.004;23.088;2023-02-15T05:59:19;72.88;;;30.77;;
39728;SDS011;25402;42.004;23.088;2023-02-15T06:01:46;55.97;;;28.00;;
39728;SDS011;25402;42.004;23.088;2023-02-15T06:04:12;58.97;;;28.27;;
39728;SDS011;25402;42.004;23.088;2023-02-15T06:06:40;53.80;;;29.85;;
39728;SDS011;25402;42.004;23.088;2023-02-15T06:09:07;61.13;;;32.42;;
39728;SDS011;25402;42.004;23.088;2023-02-15T06:11:34;62.83;;;30.48;;
39728;SDS011;25402;42.004;23.088;2023-02-15T06:14:01;43.10;;;19.70;;
39728;SDS011;25402;42.004;23.088;2023-02-15T06:16:29;39.28;;;19.80;;
39728;SDS011;25402;42.004;23.088;2023-02-15T06:18:56;37.08;;;19.58;;
39728;SDS011;25402;42.004;23.088;2023-02-15T06:21:25;38.90;;;20.13;;
39728;SDS011;25402;42.004;23.088;2023-02-15T06:23:53;45.75;;;25.00;;
39728;SDS011;25402;42.004;23.088;2023-02-15T06:26:20;60.65;;;31.63;;
39728;SDS011;25402;42.004;23.088;2023-02-15T06:28:47;54.90;;;31.23;;
39728;SDS011;25402;42.004;23.088;2023-02-15T06:31:14;55.55;;;31.33;;
39728;SDS011;25402;42.004;23.088;2023-02-15T06:33:40;64.22;;;32.72;;
39728;SDS011;25402;42.004;23.088;2023-02-15T06:36:07;93.70;;;45.17;;
39728;SDS011;25402;42.004;23.088;2023-02-15T06:38:34;114.75;;;56.13;;
39728;SDS011;25402;42.004;23.088;2023-02-15T06:41:02;117.13;;;55.15;;
39728;SDS011;25402;42.004;23.088;2023-02-15T06:43:29;106.50;;;47.47;;
39728;SDS011;25402;42.004;23.088;2023-02-15T06:45:56;115.38;;;56.05;;
39728;SDS011;25402;42.004;23.088;2023-02-15T06:48:23;78.95;;;39.90;;
39728;SDS011;25402;42.004;23.088;2023-02-15T06:50:50;71.88;;;35.58;;
39728;SDS011;25402;42.004;23.088;2023-02-15T06:53:16;67.38;;;34.72;;
39728;SDS011;25402;42.004;23.088;2023-02-15T06:55:43;62.70;;;31.23;;
39728;SDS011;25402;42.004;23.088;2023-02-15T06:58:11;63.55;;;31.92;;
39728;SDS011;25402;42.004;23.088;2023-02-15T07:00:37;71.35;;;36.95;;
39728;SDS011;25402;42.004;23.088;2023-02-15T07:03:04;170.43;;;40.95;;
39728;SDS011;25402;42.004;23.088;2023-02-15T07:05:32;85.18;;;39.55;;
39728;SDS011;25402;42.004;23.088;2023-02-15T07:07:59;274.35;;;44.35;;
39728;SDS011;25402;42.004;23.088;2023-02-15T07:10:26;106.57;;;36.35;;
39728;SDS011;25402;42.004;23.088;2023-02-15T07:12:53;134.65;;;38.38;;
39728;SDS011;25402;42.004;23.088;2023-02-15T07:15:22;98.35;;;41.28;;
39728;SDS011;25402;42.004;23.088;2023-02-15T07:17:49;98.28;;;43.22;;
39728;SDS011;25402;42.004;23.088;2023-02-15T07:20:17;113.20;;;42.40;;
39728;SDS011;25402;42.004;23.088;2023-02-15T07:22:45;89.80;;;39.05;;
39728;SDS011;25402;42.004;23.088;2023-02-15T07:25:12;114.93;;;39.92;;
39728;SDS011;25402;42.004;23.088;2023-02-15T07:27:39;98.75;;;40.47;;
39728;SDS011;25402;42.004;23.088;2023-02-15T07:30:07;110.55;;;50.42;;
39728;SDS011;25402;42.004;23.088;2023-02-15T07:32:36;108.30;;;50.80;;
39728;SDS011;25402;42.004;23.088;2023-02-15T07:35:23;101.18;;;47.67;;
39728;SDS011;25402;42.004;23.088;2023-02-15T07:37:50;103.20;;;47.30;;
39728;SDS011;25402;42.004;23.088;2023-02-15T07:40:18;97.15;;;45.55;;
39728;SDS011;25402;42.004;23.088;2023-02-15T07:42:48;89.85;;;44.33;;
39728;SDS011;25402;42.004;23.088;2023-02-15T07:45:16;99.60;;;45.20;;
39728;SDS011;25402;42.004;23.088;2023-02-15T07:47:44;96.63;;;44.45;;
39728;SDS011;25402;42.004;23.088;2023-02-15T07:50:11;119.07;;;45.15;;
39728;SDS011;25402;42.004;23.088;2023-02-15T07:52:38;99.30;;;45.55;;
39728;SDS011;25402;42.004;23.088;2023-02-15T07:55:05;90.55;;;44.50;;
39728;SDS011;25402;42.004;23.088;2023-02-15T07:57:38;93.03;;;44.37;;
39728;SDS011;25402;42.004;23.088;2023-02-15T08:00:11;122.55;;;44.17;;
39728;SDS011;25402;42.004;23.088;2023-02-15T08:02:38;116.53;;;45.90;;
39728;SDS011;25402;42.004;23.088;2023-02-15T08:07:51;77.28;;;37.67;;
39728;SDS011;25402;42.004;23.088;2023-02-15T08:10:19;69.97;;;33.00;;
39728;SDS011;25402;42.004;23.088;2023-02-15T08:13:07;72.90;;;33.20;;
39728;SDS011;25402;42.004;23.088;2023-02-15T08:15:34;66.53;;;32.47;;
39728;SDS011;25402;42.004;23.088;2023-02-15T08:18:01;52.75;;;27.08;;
39728;SDS011;25402;42.004;23.088;2023-02-15T08:20:27;52.78;;;26.67;;
39728;SDS011;25402;42.004;23.088;2023-02-15T08:22:56;49.47;;;25.77;;
39728;SDS011;25402;42.004;23.088;2023-02-15T08:25:23;46.05;;;24.00;;
39728;SDS011;25402;42.004;23.088;2023-02-15T08:27:50;44.63;;;24.45;;
39728;SDS011;25402;42.004;23.088;2023-02-15T08:30:21;52.25;;;25.35;;
39728;SDS011;25402;42.004;23.088;2023-02-15T08:32:47;50.78;;;25.77;;
39728;SDS011;25402;42.004;23.088;2023-02-15T08:35:14;54.80;;;26.50;;
39728;SDS011;25402;42.004;23.088;2023-02-15T08:37:40;51.53;;;25.33;;
39728;SDS011;25402;42.004;23.088;2023-02-15T08:40:09;47.15;;;25.17;;
39728;SDS011;25402;42.004;23.088;2023-02-15T08:42:38;43.63;;;23.75;;
39728;SDS011;25402;42.004;23.088;2023-02-15T08:45:05;53.85;;;24.15;;
39728;SDS011;25402;42.004;23.088;2023-02-15T08:47:32;51.40;;;25.85;;
39728;SDS011;25402;42.004;23.088;2023-02-15T08:49:58;53.25;;;25.60;;
39728;SDS011;25402;42.004;23.088;2023-02-15T08:52:25;51.10;;;26.20;;
39728;SDS011;25402;42.004;23.088;2023-02-15T08:54:52;54.47;;;25.55;;
39728;SDS011;25402;42.004;23.088;2023-02-15T08:57:20;56.50;;;26.88;;
39728;SDS011;25402;42.004;23.088;2023-02-15T08:59:47;51.80;;;25.88;;
39728;SDS011;25402;42.004;23.088;2023-02-15T09:02:14;53.20;;;26.58;;
39728;SDS011;25402;42.004;23.088;2023-02-15T09:04:41;49.38;;;25.88;;
39728;SDS011;25402;42.004;23.088;2023-02-15T09:07:08;51.00;;;23.90;;
39728;SDS011;25402;42.004;23.088;2023-02-15T09:09:35;80.60;;;25.38;;
39728;SDS011;25402;42.004;23.088;2023-02-15T09:12:02;49.90;;;24.52;;
39728;SDS011;25402;42.004;23.088;2023-02-15T09:14:32;95.57;;;24.77;;
39728;SDS011;25402;42.004;23.088;2023-02-15T09:16:59;58.22;;;24.60;;
39728;SDS011;25402;42.004;23.088;2023-02-15T09:19:26;48.08;;;25.25;;
39728;SDS011;25402;42.004;23.088;2023-02-15T09:21:53;51.28;;;24.80;;
39728;SDS011;25402;42.004;23.088;2023-02-15T09:24:20;50.25;;;24.77;;
39728;SDS011;25402;42.004;23.088;2023-02-15T09:26:47;49.60;;;24.67;;
39728;SDS011;25402;42.004;23.088;2023-02-15T09:29:14;104.63;;;26.33;;
39728;SDS011;25402;42.004;23.088;2023-02-15T09:31:44;62.85;;;24.38;;
39728;SDS011;25402;42.004;23.088;2023-02-15T09:34:14;60.30;;;24.55;;
39728;SDS011;25402;42.004;23.088;2023-02-15T09:36:42;43.88;;;23.60;;
39728;SDS011;25402;42.004;23.088;2023-02-15T09:39:09;41.42;;;23.15;;
39728;SDS011;25402;42.004;23.088;2023-02-15T09:44:25;53.72;;;23.70;;
39728;SDS011;25402;42.004;23.088;2023-02-15T09:47:13;48.92;;;23.98;;
39728;SDS011;25402;42.004;23.088;2023-02-15T09:49:45;35.28;;;17.60;;
39728;SDS011;25402;42.004;23.088;2023-02-15T09:52:18;31.85;;;17.45;;
39728;SDS011;25402;42.004;23.088;2023-02-15T09:57:17;37.72;;;18.48;;
39728;SDS011;25402;42.004;23.088;2023-02-15T09:59:51;41.22;;;21.50;;
39728;SDS011;25402;42.004;23.088;2023-02-15T10:02:27;51.95;;;23.42;;
39728;SDS011;25402;42.004;23.088;2023-02-15T10:05:00;43.63;;;22.27;;
39728;SDS011;25402;42.004;23.088;2023-02-15T10:07:37;61.65;;;30.02;;
39728;SDS011;25402;42.004;23.088;2023-02-15T10:10:10;51.67;;;27.88;;
39728;SDS011;25402;42.004;23.088;2023-02-15T10:12:47;46.15;;;24.60;;
39728;SDS011;25402;42.004;23.088;2023-02-15T10:15:20;36.15;;;21.90;;
39728;SDS011;25402;42.004;23.088;2023-02-15T10:20:36;58.60;;;23.15;;
39728;SDS011;25402;42.004;23.088;2023-02-15T10:23:10;38.95;;;22.20;;
39728;SDS011;25402;42.004;23.088;2023-02-15T10:25:41;39.50;;;22.73;;
39728;SDS011;25402;42.004;23.088;2023-02-15T10:28:14;69.47;;;32.40;;
39728;SDS011;25402;42.004;23.088;2023-02-15T10:30:43;68.13;;;31.50;;
39728;SDS011;25402;42.004;23.088;2023-02-15T10:33:14;66.28;;;29.85;;
39728;SDS011;25402;42.004;23.088;2023-02-15T10:35:50;44.40;;;23.55;;
39728;SDS011;25402;42.004;23.088;2023-02-15T10:40:50;42.63;;;21.92;;
39728;SDS011;25402;42.004;23.088;2023-02-15T10:43:25;44.45;;;23.10;;
39728;SDS011;25402;42.004;23.088;2023-02-15T10:45:56;37.43;;;21.50;;
39728;SDS011;25402;42.004;23.088;2023-02-15T10:48:38;36.72;;;20.05;;
39728;SDS011;25402;42.004;23.088;2023-02-15T10:51:10;33.78;;;17.70;;
39728;SDS011;25402;42.004;23.088;2023-02-15T10:53:49;36.60;;;17.13;;
39728;SDS011;25402;42.004;23.088;2023-02-15T10:56:22;31.75;;;17.98;;
39728;SDS011;25402;42.004;23.088;2023-02-15T11:01:43;31.58;;;18.33;;
39728;SDS011;25402;42.004;23.088;2023-02-15T11:07:06;31.45;;;18.60;;
39728;SDS011;25402;42.004;23.088;2023-02-15T11:09:37;33.70;;;19.35;;
39728;SDS011;25402;42.004;23.088;2023-02-15T11:12:07;33.53;;;19.33;;
39728;SDS011;25402;42.004;23.088;2023-02-15T11:14:37;49.58;;;21.58;;
39728;SDS011;25402;42.004;23.088;2023-02-15T11:17:07;37.30;;;20.70;;
39728;SDS011;25402;42.004;23.088;2023-02-15T11:19:37;30.33;;;17.08;;
39728;SDS011;25402;42.004;23.088;2023-02-15T11:22:09;34.58;;;18.20;;
39728;SDS011;25402;42.004;23.088;2023-02-15T11:24:37;34.70;;;19.60;;
39728;SDS011;25402;42.004;23.088;2023-02-15T11:27:10;37.67;;;20.77;;
39728;SDS011;25402;42.004;23.088;2023-02-15T11:29:41;33.70;;;18.15;;
39728;SDS011;25402;42.004;23.088;2023-02-15T11:32:13;34.20;;;19.00;;
39728;SDS011;25402;42.004;23.088;2023-02-15T11:34:46;35.63;;;18.92;;
39728;SDS011;25402;42.004;23.088;2023-02-15T11:37:17;35.67;;;19.40;;
39728;SDS011;25402;42.004;23.088;2023-02-15T11:39:47;48.63;;;18.30;;
39728;SDS011;25402;42.004;23.088;2023-02-15T11:42:18;34.72;;;19.50;;
39728;SDS011;25402;42.004;23.088;2023-02-15T11:44:47;34.22;;;17.73;;
39728;SDS011;25402;42.004;23.088;2023-02-15T11:47:16;45.17;;;20.92;;
39728;SDS011;25402;42.004;23.088;2023-02-15T11:49:43;33.70;;;19.17;;
39728;SDS011;25402;42.004;23.088;2023-02-15T11:52:12;36.03;;;20.13;;
39728;SDS011;25402;42.004;23.088;2023-02-15T11:54:41;36.72;;;20.20;;
39728;SDS011;25402;42.004;23.088;2023-02-15T11:57:11;36.38;;;18.92;;
39728;SDS011;25402;42.004;23.088;2023-02-15T11:59:38;37.72;;;19.88;;
39728;SDS011;25402;42.004;23.088;2023-02-15T12:02:10;81.97;;;21.73;;
39728;SDS011;25402;42.004;23.088;2023-02-15T12:04:46;48.65;;;20.92;;
39728;SDS011;25402;42.004;23.088;2023-02-15T12:07:15;34.80;;;19.15;;
39728;SDS011;25402;42.004;23.088;2023-02-15T12:09:48;34.25;;;19.23;;
39728;SDS011;25402;42.004;23.088;2023-02-15T12:12:20;28.52;;;17.60;;
39728;SDS011;25402;42.004;23.088;2023-02-15T12:14:48;32.30;;;18.38;;
39728;SDS011;25402;42.004;23.088;2023-02-15T12:17:15;29.90;;;18.48;;
39728;SDS011;25402;42.004;23.088;2023-02-15T12:19:42;28.85;;;18.50;;
39728;SDS011;25402;42.004;23.088;2023-02-15T12:22:17;27.33;;;17.73;;
39728;SDS011;25402;42.004;23.088;2023-02-15T12:24:46;30.48;;;17.73;;
39728;SDS011;25402;42.004;23.088;2023-02-15T12:27:14;30.63;;;16.55;;
39728;SDS011;25402;42.004;23.088;2023-02-15T12:29:42;26.10;;;16.67;;
39728;SDS011;25402;42.004;23.088;2023-02-15T12:32:10;35.58;;;18.15;;
39728;SDS011;25402;42.004;23.088;2023-02-15T12:34:38;35.90;;;20.92;;
39728;SDS011;25402;42.004;23.088;2023-02-15T12:37:09;41.47;;;19.55;;
39728;SDS011;25402;42.004;23.088;2023-02-15T12:39:36;30.95;;;17.63;;
39728;SDS011;25402;42.004;23.088;2023-02-15T12:42:05;27.25;;;16.75;;
39728;SDS011;25402;42.004;23.088;2023-02-15T12:44:42;24.90;;;16.27;;
39728;SDS011;25402;42.004;23.088;2023-02-15T12:47:18;39.13;;;17.33;;
39728;SDS011;25402;42.004;23.088;2023-02-15T12:50:03;32.22;;;16.63;;
39728;SDS011;25402;42.004;23.088;2023-02-15T12:52:30;27.95;;;16.48;;
39728;SDS011;25402;42.004;23.088;2023-02-15T12:54:58;28.02;;;16.23;;
39728;SDS011;25402;42.004;23.088;2023-02-15T12:57:37;26.85;;;16.50;;
39728;SDS011;25402;42.004;23.088;2023-02-15T13:00:04;27.58;;;16.50;;
39728;SDS011;25402;42.004;23.088;2023-02-15T13:02:34;41.22;;;23.75;;
39728;SDS011;25402;42.004;23.088;2023-02-15T13:05:10;48.08;;;27.38;;
39728;SDS011;25402;42.004;23.088;2023-02-15T13:07:44;31.42;;;17.55;;
39728;SDS011;25402;42.004;23.088;2023-02-15T13:10:18;28.35;;;17.27;;
39728;SDS011;25402;42.004;23.088;2023-02-15T13:12:47;29.25;;;16.20;;
39728;SDS011;25402;42.004;23.088;2023-02-15T13:15:23;28.87;;;16.70;;
39728;SDS011;25402;42.004;23.088;2023-02-15T13:17:51;29.52;;;16.40;;
39728;SDS011;25402;42.004;23.088;2023-02-15T13:20:18;29.60;;;17.13;;
39728;SDS011;25402;42.004;23.088;2023-02-15T13:22:46;36.83;;;17.73;;
39728;SDS011;25402;42.004;23.088;2023-02-15T13:25:16;33.65;;;16.60;;
39728;SDS011;25402;42.004;23.088;2023-02-15T13:27:44;27.00;;;15.32;;
39728;SDS011;25402;42.004;23.088;2023-02-15T13:30:17;24.73;;;15.20;;
39728;SDS011;25402;42.004;23.088;2023-02-15T13:32:46;26.52;;;14.63;;
39728;SDS011;25402;42.004;23.088;2023-02-15T13:35:15;48.65;;;15.68;;
39728;SDS011;25402;42.004;23.088;2023-02-15T13:37:45;27.73;;;14.43;;
39728;SDS011;25402;42.004;23.088;2023-02-15T13:40:15;26.13;;;15.70;;
39728;SDS011;25402;42.004;23.088;2023-02-15T13:42:44;99.90;;;18.85;;
39728;SDS011;25402;42.004;23.088;2023-02-15T13:45:24;45.35;;;16.17;;
39728;SDS011;25402;42.004;23.088;2023-02-15T13:47:56;34.85;;;14.45;;
39728;SDS011;25402;42.004;23.088;2023-02-15T13:53:14;22.38;;;14.10;;
39728;SDS011;25402;42.004;23.088;2023-02-15T13:55:46;23.25;;;13.60;;
39728;SDS011;25402;42.004;23.088;2023-02-15T13:58:21;24.15;;;13.52;;
39728;SDS011;25402;42.004;23.088;2023-02-15T14:00:56;25.95;;;13.45;;
39728;SDS011;25402;42.004;23.088;2023-02-15T14:06:14;25.67;;;14.00;;
39728;SDS011;25402;42.004;23.088;2023-02-15T14:08:47;25.55;;;14.10;;
39728;SDS011;25402;42.004;23.088;2023-02-15T14:11:18;23.83;;;14.30;;
39728;SDS011;25402;42.004;23.088;2023-02-15T14:16:36;33.70;;;13.32;;
39728;SDS011;25402;42.004;23.088;2023-02-15T14:19:10;34.22;;;14.18;;
39728;SDS011;25402;42.004;23.088;2023-02-15T14:21:38;23.27;;;13.15;;
39728;SDS011;25402;42.004;23.088;2023-02-15T14:24:09;31.50;;;13.48;;
39728;SDS011;25402;42.004;23.088;2023-02-15T14:26:41;28.60;;;13.05;;
39728;SDS011;25402;42.004;23.088;2023-02-15T14:29:16;24.15;;;13.55;;
39728;SDS011;25402;42.004;23.088;2023-02-15T14:31:47;33.58;;;14.48;;
39728;SDS011;25402;42.004;23.088;2023-02-15T14:34:18;26.25;;;14.63;;
39728;SDS011;25402;42.004;23.088;2023-02-15T14:36:46;24.50;;;13.48;;
39728;SDS011;25402;42.004;23.088;2023-02-15T14:39:15;23.45;;;13.88;;
39728;SDS011;25402;42.004;23.088;2023-02-15T14:42:03;22.42;;;13.23;;
39728;SDS011;25402;42.004;23.088;2023-02-15T14:44:32;26.80;;;13.18;;
39728;SDS011;25402;42.004;23.088;2023-02-15T14:47:04;28.33;;;13.73;;
39728;SDS011;25402;42.004;23.088;2023-02-15T14:49:35;27.58;;;13.75;;
39728;SDS011;25402;42.004;23.088;2023-02-15T14:52:03;24.65;;;13.27;;
39728;SDS011;25402;42.004;23.088;2023-02-15T14:54:54;24.42;;;13.38;;
39728;SDS011;25402;42.004;23.088;2023-02-15T14:57:24;22.42;;;13.52;;
39728;SDS011;25402;42.004;23.088;2023-02-15T14:59:53;26.70;;;13.98;;
39728;SDS011;25402;42.004;23.088;2023-02-15T15:02:24;26.67;;;14.02;;